Kimberly Jane — WDF9115 — position and weather

sailwx.info

Track history (hours):
 
Tides and Currents Weather Stations Pressure Air Temp Water Temp Dewpoint Dewpoint Depression Visibility Wind Speed Wind Dir Waves Ship Positions

Kimberly Jane

Owner: Kirby Inland Marine LP, Houston, TX. More information available from US FCC via Universal Licensing System and Coast Guard Vessel Documentation Center.

Last reported at 2018-Jan-18 18:00 UTC. Time now 2018-Jan-21 00:59 UTC.
Position N 32°38' W 091°09'.

Length 210 m; draft 2.9 m.

Type: . MMSI: 367501920.

Date/timePositionNaut miles runAvg speedWind from/ knotsBaromVisibWave heightAir tempDewpointWater temp
2018-Jan-18 18:00N 32°38' W 091°09'1 2.8
2018-Jan-18 17:30N 32°36' W 091°09'1 2.5
2018-Jan-18 17:00N 32°35' W 091°08'3 5.0
2018-Jan-18 16:30N 32°33' W 091°06'3 5.2
2018-Jan-18 15:59N 32°31' W 091°07'3 5.5
2018-Jan-18 15:30N 32°28' W 091°06'3 5.8
2018-Jan-18 15:00N 32°26' W 091°03'3 5.4
2018-Jan-18 14:30N 32°25' W 091°00'2 4.6
2018-Jan-18 14:00N 32°23' W 090°60'2 4.4
2018-Jan-18 13:30N 32°21' W 090°59'3 6.0
2018-Jan-18 13:00N 32°21' W 090°56'2 4.2
2018-Jan-18 12:30N 32°19' W 090°54'1 2.9
2018-Jan-18 12:00N 32°18' W 090°55'0 0.1
2018-Jan-18 11:30N 32°18' W 090°55'0 0.0
2018-Jan-18 11:00N 32°18' W 090°55'0 0.0
2018-Jan-18 10:30N 32°18' W 090°55'0 0.0
2018-Jan-18 10:00N 32°18' W 090°55'0 0.0
2018-Jan-18 09:30N 32°18' W 090°55'0 0.1
2018-Jan-18 09:00N 32°18' W 090°55'2 4.4
2018-Jan-18 08:30N 32°17' W 090°57'3 5.3
2018-Jan-18 08:00N 32°15' W 090°59'2 3.7
2018-Jan-18 07:30N 32°13' W 090°59'3 5.0
2018-Jan-18 07:00N 32°10' W 091°00'3 5.2
2018-Jan-18 06:30N 32°08' W 091°01'2 4.8
2018-Jan-18 06:00N 32°08' W 091°03'3 5.3
2018-Jan-18 05:30N 32°08' W 091°07'5 2.9
2018-Jan-18 03:46N 32°03' W 091°03'2 6.3
2018-Jan-18 03:28N 32°02' W 091°04'  
Track history (hours):
 
Tides and Currents Weather Stations Pressure Air Temp Water Temp Dewpoint Dewpoint Depression Visibility Wind Speed Wind Dir Waves Ship Positions

Kimberly Jane

Owner: Kirby Inland Marine LP, Houston, TX. More information available from US FCC via Universal Licensing System and Coast Guard Vessel Documentation Center.

Last reported at 2018-Jan-18 18:00 UTC. Time now 2018-Jan-21 00:59 UTC.
Position N 32°38' W 091°09'.

Length 210 m; draft 2.9 m.

Type: . MMSI: 367501920.

Date/timePositionNaut miles runAvg speedWind from/ knotsBaromVisibWave heightAir tempDewpointWater temp
2018-Jan-18 18:00N 32°38' W 091°09'1 2.8
2018-Jan-18 17:30N 32°36' W 091°09'1 2.5
2018-Jan-18 17:00N 32°35' W 091°08'3 5.0
2018-Jan-18 16:30N 32°33' W 091°06'3 5.2
2018-Jan-18 15:59N 32°31' W 091°07'3 5.5
2018-Jan-18 15:30N 32°28' W 091°06'3 5.8
2018-Jan-18 15:00N 32°26' W 091°03'3 5.4
2018-Jan-18 14:30N 32°25' W 091°00'2 4.6
2018-Jan-18 14:00N 32°23' W 090°60'2 4.4
2018-Jan-18 13:30N 32°21' W 090°59'3 6.0
2018-Jan-18 13:00N 32°21' W 090°56'2 4.2
2018-Jan-18 12:30N 32°19' W 090°54'1 2.9
2018-Jan-18 12:00N 32°18' W 090°55'0 0.1
2018-Jan-18 11:30N 32°18' W 090°55'0 0.0
2018-Jan-18 11:00N 32°18' W 090°55'0 0.0
2018-Jan-18 10:30N 32°18' W 090°55'0 0.0
2018-Jan-18 10:00N 32°18' W 090°55'0 0.0
2018-Jan-18 09:30N 32°18' W 090°55'0 0.1
2018-Jan-18 09:00N 32°18' W 090°55'2 4.4
2018-Jan-18 08:30N 32°17' W 090°57'3 5.3
2018-Jan-18 08:00N 32°15' W 090°59'2 3.7
2018-Jan-18 07:30N 32°13' W 090°59'3 5.0
2018-Jan-18 07:00N 32°10' W 091°00'3 5.2
2018-Jan-18 06:30N 32°08' W 091°01'2 4.8
2018-Jan-18 06:00N 32°08' W 091°03'3 5.3
2018-Jan-18 05:30N 32°08' W 091°07'5 2.9
2018-Jan-18 03:46N 32°03' W 091°03'2 6.3
2018-Jan-18 03:28N 32°02' W 091°04'  

Dump ship's entire track history